createdAt,value
2022-09-27T00:00:57.239Z,9.9
2022-09-27T00:02:59.307Z,9.9
2022-09-27T00:05:01.256Z,9.9
2022-09-27T00:07:03.295Z,9.7
2022-09-27T00:09:05.278Z,9.9
2022-09-27T00:11:10.539Z,10
2022-09-27T00:13:12.539Z,10
2022-09-27T00:15:14.561Z,9.8
2022-09-27T00:17:16.574Z,9.9
2022-09-27T00:19:18.593Z,9.9
2022-09-27T00:21:20.587Z,9.8
2022-09-27T00:23:22.578Z,9.9
2022-09-27T00:25:27.818Z,9.9
2022-09-27T00:27:29.846Z,9.7
2022-09-27T00:29:31.854Z,9.7
2022-09-27T00:31:33.922Z,9.6
2022-09-27T00:33:35.867Z,9.6
2022-09-27T00:35:37.915Z,9.5
2022-09-27T00:37:39.902Z,9.8
2022-09-27T00:39:45.152Z,9.2
2022-09-27T00:41:47.171Z,9.7
2022-09-27T00:43:49.174Z,9.6
2022-09-27T00:44:51.793Z,9.5
2022-09-27T00:46:53.814Z,9.5
2022-09-27T00:48:55.836Z,9.6
2022-09-27T00:50:57.879Z,9.5
2022-09-27T00:53:03.107Z,9.6
2022-09-27T00:55:05.089Z,9.7
2022-09-27T00:57:07.130Z,9.6
2022-09-27T00:59:09.229Z,9.9
2022-09-27T01:01:11.190Z,9.7
2022-09-27T01:03:13.164Z,9.9
2022-09-27T01:05:15.165Z,9.6
2022-09-27T01:07:20.423Z,9.7
2022-09-27T01:09:22.416Z,9.7
2022-09-27T01:11:24.421Z,9.7
2022-09-27T01:13:26.459Z,9.7
2022-09-27T01:15:28.526Z,9.5
2022-09-27T01:17:30.446Z,9.7
2022-09-27T01:19:32.565Z,9.6
2022-09-27T01:21:37.787Z,9.6
2022-09-27T01:23:39.811Z,9.6
2022-09-27T01:25:41.803Z,9.6
2022-09-27T01:27:43.800Z,9.6
2022-09-27T01:29:45.829Z,9.6
2022-09-27T01:31:47.819Z,9.7
2022-09-27T01:35:55.081Z,9.8
2022-09-27T01:37:57.071Z,9.7
2022-09-27T01:39:59.085Z,9.7
2022-09-27T01:42:27.913Z,9.6
2022-09-27T01:44:29.927Z,9.7
2022-09-27T01:46:32.010Z,9.6
2022-09-27T01:48:37.211Z,9.6
2022-09-27T01:50:39.222Z,9.5
2022-09-27T01:52:41.223Z,9.6
2022-09-27T01:54:43.219Z,9.7
2022-09-27T01:56:45.252Z,9.8
2022-09-27T01:58:47.243Z,9.6
2022-09-27T02:00:49.244Z,9.7
2022-09-27T02:02:54.516Z,9.5
2022-09-27T02:04:56.508Z,9.4
2022-09-27T02:06:58.497Z,9.5
2022-09-27T02:09:00.495Z,9.4
2022-09-27T02:11:04.056Z,9.3
2022-09-27T02:13:06.014Z,9.3
2022-09-27T02:15:08.050Z,9.3
2022-09-27T02:17:13.247Z,9.3
2022-09-27T02:19:15.438Z,9.3
2022-09-27T02:21:17.303Z,9.2
2022-09-27T02:23:19.311Z,9
2022-09-27T02:25:21.286Z,9.3
2022-09-27T02:27:23.311Z,9.3
2022-09-27T02:29:25.315Z,9.1
2022-09-27T02:31:30.592Z,9.1
2022-09-27T02:33:32.558Z,8.9
2022-09-27T02:38:39.215Z,8.8
2022-09-27T02:40:41.232Z,8.9
2022-09-27T02:42:43.197Z,8.9
2022-09-27T02:44:48.435Z,8.9
2022-09-27T02:46:50.451Z,8.7
2022-09-27T02:48:52.442Z,8.9
2022-09-27T02:50:54.443Z,8.9
2022-09-27T02:54:58.445Z,8.8
2022-09-27T02:57:00.435Z,8.6
2022-09-27T03:05:11.677Z,8.6
2022-09-27T03:07:13.690Z,8.6
2022-09-27T03:09:15.906Z,8.5
2022-09-27T03:11:17.717Z,8.6
2022-09-27T03:13:22.960Z,8.6
2022-09-27T03:15:25.137Z,8.4
2022-09-27T03:17:26.985Z,8.5
2022-09-27T03:19:28.972Z,8.4
2022-09-27T03:21:31.101Z,8.5
2022-09-27T03:23:32.976Z,8.4
2022-09-27T03:25:35.007Z,8.5
2022-09-27T03:27:40.207Z,8.5
2022-09-27T03:29:42.210Z,8.4
2022-09-27T03:31:44.222Z,8.5
2022-09-27T03:32:46.850Z,8.5
2022-09-27T03:38:52.876Z,8.4
2022-09-27T03:40:58.187Z,8.4
2022-09-27T03:43:00.092Z,8.5
2022-09-27T03:45:02.091Z,8.4
2022-09-27T03:47:04.109Z,8.5
2022-09-27T03:51:08.099Z,8.4
2022-09-27T03:53:10.087Z,8.6
2022-09-27T03:55:15.348Z,8.4
2022-09-27T04:01:21.342Z,8.3
2022-09-27T04:03:23.338Z,8.3
2022-09-27T04:05:25.345Z,8.4
2022-09-27T04:07:27.328Z,8.3
2022-09-27T04:09:32.559Z,8.2
2022-09-27T04:11:34.546Z,8.2
2022-09-27T04:13:36.563Z,8.4
2022-09-27T04:15:38.550Z,8.3
2022-09-27T04:17:40.541Z,8.2
2022-09-27T04:19:42.545Z,8.3
2022-09-27T04:21:44.569Z,8.2
2022-09-27T04:23:49.811Z,8.1
2022-09-27T04:25:51.819Z,8.1
2022-09-27T04:27:53.819Z,8.3
2022-09-27T04:28:56.448Z,8
2022-09-27T04:30:58.461Z,8.2
2022-09-27T04:33:00.470Z,8.1
2022-09-27T04:35:02.427Z,8.3
2022-09-27T04:37:07.666Z,7.8
2022-09-27T04:39:09.728Z,8.3
2022-09-27T04:41:11.629Z,8.2
2022-09-27T04:43:13.631Z,8.2
2022-09-27T04:45:15.661Z,8.1
2022-09-27T04:47:17.635Z,8.3
2022-09-27T04:49:19.715Z,8.1
2022-09-27T04:51:24.893Z,8
2022-09-27T04:53:26.877Z,8.1
2022-09-27T04:55:28.881Z,8.3
2022-09-27T04:57:30.862Z,8.1
2022-09-27T04:59:32.877Z,8.1
2022-09-27T05:01:34.916Z,7.9
2022-09-27T05:03:36.856Z,8.1
2022-09-27T05:05:42.077Z,7.9
2022-09-27T05:07:44.062Z,8
2022-09-27T05:09:46.100Z,8
2022-09-27T05:11:48.070Z,7.8
2022-09-27T05:13:50.089Z,7.9
2022-09-27T05:15:52.105Z,7.9
2022-09-27T05:17:54.051Z,7.9
2022-09-27T05:19:59.263Z,8.1
2022-09-27T05:22:01.276Z,7.9
2022-09-27T05:24:03.237Z,8.1
2022-09-27T05:26:30.758Z,7.9
2022-09-27T05:28:32.760Z,7.8
2022-09-27T05:30:34.959Z,8
2022-09-27T05:32:39.977Z,8
2022-09-27T05:34:41.958Z,7.8
2022-09-27T05:36:43.970Z,7.9
2022-09-27T05:38:45.968Z,7.6
2022-09-27T05:40:48.098Z,7.9
2022-09-27T05:42:49.986Z,7.8
2022-09-27T05:44:51.969Z,7.9
2022-09-27T05:46:57.181Z,7.6
2022-09-27T05:48:59.195Z,8
2022-09-27T05:51:01.175Z,7.8
2022-09-27T05:53:03.166Z,8
2022-09-27T05:55:05.163Z,7.9
2022-09-27T05:57:07.135Z,7.8
2022-09-27T05:59:09.121Z,8
2022-09-27T06:01:14.367Z,7.9
2022-09-27T06:03:16.318Z,8
2022-09-27T06:11:24.318Z,8.4
2022-09-27T06:17:33.517Z,8.1
2022-09-27T06:20:38.115Z,10.3
2022-09-27T06:22:40.146Z,10.4
2022-09-27T06:24:42.116Z,10.2
2022-09-27T06:26:44.103Z,10.9
2022-09-27T06:28:49.329Z,9.3
2022-09-27T06:30:51.368Z,9.3
2022-09-27T06:32:53.318Z,9.1
2022-09-27T06:34:55.307Z,9.4
2022-09-27T06:38:59.297Z,9.9
2022-09-27T06:43:06.550Z,9.4
2022-09-27T06:45:08.536Z,9.3
2022-09-27T06:47:10.536Z,9
2022-09-27T06:49:12.532Z,9
2022-09-27T06:51:14.526Z,9
2022-09-27T06:53:16.517Z,9
2022-09-27T06:55:18.519Z,9
2022-09-27T06:57:23.925Z,9.2
2022-09-27T06:59:25.753Z,9
2022-09-27T07:01:27.813Z,9.2
2022-09-27T07:03:34.412Z,9
2022-09-27T07:07:33.723Z,9.1
2022-09-27T07:09:35.720Z,9.4
2022-09-27T07:11:40.980Z,9.1
2022-09-27T07:13:43.008Z,9.2
2022-09-27T07:15:44.953Z,9.4
2022-09-27T07:16:47.620Z,9.5
2022-09-27T07:18:49.565Z,9.5
2022-09-27T07:20:51.586Z,9.5
2022-09-27T07:22:53.707Z,9.3
2022-09-27T07:24:58.813Z,9.7
2022-09-27T07:27:00.803Z,9.6
2022-09-27T07:29:02.873Z,9.8
2022-09-27T07:31:05.046Z,9.9
2022-09-27T07:33:06.901Z,9.8
2022-09-27T07:35:08.884Z,9.9
2022-09-27T07:37:10.894Z,10
2022-09-27T07:39:16.236Z,9.8
2022-09-27T07:41:18.106Z,9.9
2022-09-27T07:43:20.221Z,10
2022-09-27T07:45:22.095Z,9.9
2022-09-27T07:47:24.125Z,9.9
2022-09-27T07:49:26.114Z,10
2022-09-27T07:51:28.134Z,9.9
2022-09-27T07:53:33.352Z,9.9
2022-09-27T07:55:35.372Z,9.9
2022-09-27T07:57:37.383Z,9.9
2022-09-27T07:59:39.385Z,9.9
2022-09-27T08:01:41.447Z,9.8
2022-09-27T08:03:44.974Z,10.2
2022-09-27T08:05:46.951Z,9.9
2022-09-27T08:07:52.174Z,10
2022-09-27T08:09:54.177Z,10.2
2022-09-27T08:11:56.194Z,10.1
2022-09-27T08:17:02.799Z,10.4
2022-09-27T08:19:04.838Z,10.6
2022-09-27T08:21:10.048Z,10.5
2022-09-27T08:25:14.093Z,10.7
2022-09-27T08:27:16.115Z,10.7
2022-09-27T08:31:20.204Z,10.9
2022-09-27T08:33:22.039Z,11.3
2022-09-27T08:35:27.313Z,11.2
2022-09-27T08:37:29.192Z,11.1
2022-09-27T08:39:31.205Z,10.9
2022-09-27T08:41:33.194Z,10.9
2022-09-27T08:43:35.241Z,10.8
2022-09-27T08:45:37.318Z,10.7
2022-09-27T08:47:39.171Z,10.6
2022-09-27T08:49:44.387Z,10.6
2022-09-27T08:51:46.340Z,10.4
2022-09-27T08:59:54.317Z,10.3
2022-09-27T09:06:03.574Z,10.2
2022-09-27T09:08:05.607Z,10.3
2022-09-27T09:10:34.443Z,10.5
2022-09-27T09:12:36.465Z,10.3
2022-09-27T09:14:38.487Z,10.5
2022-09-27T09:16:43.734Z,10.6
2022-09-27T09:18:45.705Z,10.4
2022-09-27T09:20:47.693Z,10.8
2022-09-27T09:26:53.728Z,10.7
2022-09-27T09:28:55.727Z,11
2022-09-27T09:31:00.972Z,11
2022-09-27T09:33:02.998Z,11.2
2022-09-27T09:41:10.943Z,11.2
2022-09-27T09:43:12.853Z,11.1
2022-09-27T09:49:21.913Z,11
2022-09-27T09:55:27.859Z,11.1
2022-09-27T09:59:34.989Z,11
2022-09-27T10:01:36.910Z,11.1
2022-09-27T10:03:38.921Z,11
2022-09-27T10:04:41.477Z,11.1
2022-09-27T10:06:43.491Z,11
2022-09-27T10:08:45.521Z,11.1
2022-09-27T10:10:47.519Z,11.4
2022-09-27T10:12:52.644Z,11.2
2022-09-27T10:18:58.699Z,11.2
2022-09-27T10:21:00.749Z,11.4
2022-09-27T10:23:02.736Z,11.4
2022-09-27T10:27:09.914Z,11.4
2022-09-27T10:29:11.809Z,11.4
2022-09-27T10:35:22.839Z,11.2
2022-09-27T10:37:19.672Z,11.1
2022-09-27T10:39:21.559Z,11.2
2022-09-27T10:43:29.790Z,11
2022-09-27T10:45:30.789Z,11.1
2022-09-27T10:47:32.658Z,10.9
2022-09-27T10:49:34.673Z,11
2022-09-27T10:53:38.596Z,10.7
2022-09-27T10:55:43.828Z,11
2022-09-27T11:00:50.386Z,10.9
2022-09-27T11:02:52.393Z,11.1
2022-09-27T11:04:54.446Z,10.9
2022-09-27T11:06:56.309Z,11.2
2022-09-27T11:09:01.453Z,11.2
2022-09-27T11:11:03.469Z,10.9
2022-09-27T11:13:05.483Z,10.9
2022-09-27T11:15:07.428Z,11
2022-09-27T11:17:09.413Z,11.1
2022-09-27T11:19:15.288Z,10.6
2022-09-27T11:21:13.428Z,10.8
2022-09-27T11:23:18.589Z,10.7
2022-09-27T11:25:20.590Z,10.8
2022-09-27T11:27:22.611Z,10.8
2022-09-27T11:29:24.532Z,10.7
2022-09-27T11:33:28.448Z,10.4
2022-09-27T11:35:30.458Z,10.7
2022-09-27T11:37:35.595Z,11.3
2022-09-27T11:39:37.518Z,10.9
2022-09-27T11:41:39.553Z,11
2022-09-27T11:43:41.530Z,10.9
2022-09-27T11:46:10.731Z,11.1
2022-09-27T11:47:45.673Z,10.9
2022-09-27T11:49:47.462Z,11.1
2022-09-27T11:51:52.733Z,11
2022-09-27T11:53:54.749Z,10.9
2022-09-27T11:55:56.751Z,11.2
2022-09-27T12:03:05.450Z,11.2
2022-09-27T12:05:10.592Z,11.3
2022-09-27T12:07:12.484Z,11.1
2022-09-27T12:09:14.568Z,10.9
2022-09-27T12:11:16.540Z,10.8
2022-09-27T12:13:18.565Z,10.9
2022-09-27T12:15:20.570Z,11.3
2022-09-27T12:17:22.479Z,11.2
2022-09-27T12:19:27.533Z,11.4
2022-09-27T12:21:29.534Z,11.2
2022-09-27T12:23:36.428Z,11.1
2022-09-27T12:25:33.350Z,11.6
2022-09-27T12:27:35.276Z,11.2
2022-09-27T12:29:37.317Z,11.3
2022-09-27T12:31:39.357Z,11.3
2022-09-27T12:37:48.525Z,11.2
2022-09-27T12:39:50.433Z,11.1
2022-09-27T12:41:52.362Z,11.2
2022-09-27T12:43:54.246Z,11.3
2022-09-27T12:45:56.274Z,11.1
2022-09-27T12:48:01.578Z,11.1
2022-09-27T12:50:03.471Z,11.2
2022-09-27T12:52:05.495Z,11.1
2022-09-27T12:54:34.218Z,11
2022-09-27T12:56:36.135Z,10.8
2022-09-27T12:58:38.039Z,11.2
2022-09-27T13:00:43.245Z,10.4
2022-09-27T13:03:03.838Z,11.1
2022-09-27T13:04:47.115Z,11.1
2022-09-27T13:06:49.106Z,11.4
2022-09-27T13:08:54.055Z,10.9
2022-09-27T13:10:53.182Z,10.9
2022-09-27T13:12:55.184Z,11.1
2022-09-27T13:15:00.418Z,10.9
2022-09-27T13:17:02.383Z,11.1
2022-09-27T13:21:06.382Z,11
2022-09-27T13:25:10.281Z,11
2022-09-27T13:27:12.241Z,10.7
2022-09-27T13:29:17.384Z,11.1
2022-09-27T13:31:19.342Z,11.5
2022-09-27T13:33:21.197Z,10.7
2022-09-27T13:35:23.109Z,10.8
2022-09-27T13:39:26.965Z,10.9
2022-09-27T13:41:28.979Z,10.4
2022-09-27T13:43:34.223Z,10.5
2022-09-27T13:45:36.258Z,10.5
2022-09-27T13:47:38.272Z,10.5
2022-09-27T13:48:40.882Z,10.6
2022-09-27T13:50:42.909Z,10.3
2022-09-27T13:54:48.502Z,10.4
2022-09-27T14:00:57.831Z,10.2
2022-09-27T14:02:59.647Z,10.3
2022-09-27T14:05:01.687Z,10.1
2022-09-27T14:07:03.688Z,9.9
2022-09-27T14:09:05.685Z,10.1
2022-09-27T14:11:10.980Z,10.1
2022-09-27T14:13:12.952Z,10.1
2022-09-27T14:15:14.992Z,10.2
2022-09-27T14:17:17.017Z,10.2
2022-09-27T14:19:19.015Z,10
2022-09-27T14:23:23.076Z,10
2022-09-27T14:25:28.323Z,10
2022-09-27T14:27:30.348Z,10.2
2022-09-27T14:29:32.371Z,10.2
2022-09-27T14:31:34.509Z,10
2022-09-27T14:33:36.418Z,10.1
2022-09-27T14:35:38.449Z,10.3
2022-09-27T14:37:40.436Z,10.3
2022-09-27T14:39:45.593Z,10.1
2022-09-27T14:41:47.599Z,10.2
2022-09-27T14:43:49.620Z,10.4
2022-09-27T14:51:01.352Z,10.5
2022-09-27T14:55:05.553Z,10.4
2022-09-27T14:57:07.581Z,10.2
2022-09-27T14:59:09.636Z,10.3
2022-09-27T15:01:11.625Z,10.4
2022-09-27T15:03:13.749Z,10.2
2022-09-27T15:07:20.802Z,10.3
2022-09-27T15:11:24.864Z,10.8
2022-09-27T15:13:26.856Z,10.2
2022-09-27T15:15:28.907Z,10.4
2022-09-27T15:17:30.893Z,10.4
2022-09-27T15:21:38.168Z,10.5
2022-09-27T15:23:40.189Z,10.5
2022-09-27T15:25:42.204Z,10.3
2022-09-27T15:27:44.212Z,10.4
2022-09-27T15:29:46.241Z,10.4
2022-09-27T15:31:48.325Z,10.3
2022-09-27T15:33:52.020Z,10.3
2022-09-27T15:35:55.518Z,10.4
2022-09-27T15:41:02.286Z,10.2
2022-09-27T15:43:04.081Z,10.3
2022-09-27T15:47:08.114Z,10.1
2022-09-27T15:49:13.451Z,10.4
2022-09-27T15:51:15.391Z,10.2
2022-09-27T15:53:17.415Z,10.2
2022-09-27T15:55:19.414Z,10.2
2022-09-27T15:57:21.450Z,10.2
2022-09-27T15:59:23.467Z,10.1
2022-09-27T16:01:25.501Z,9.9
2022-09-27T16:03:30.780Z,10
2022-09-27T16:05:32.750Z,10
2022-09-27T16:07:34.754Z,10.1
2022-09-27T16:09:36.790Z,10
2022-09-27T16:11:38.801Z,9.9
2022-09-27T16:13:40.810Z,10.1
2022-09-27T16:15:42.924Z,10.1
2022-09-27T16:17:48.080Z,9.9
2022-09-27T16:19:50.144Z,9.8
2022-09-27T16:21:52.101Z,9.8
2022-09-27T16:27:58.136Z,9.6
2022-09-27T16:30:00.209Z,9.8
2022-09-27T16:32:05.428Z,9.8
2022-09-27T16:34:07.316Z,9.8
2022-09-27T16:36:09.347Z,9.7
2022-09-27T16:38:38.176Z,9.4
2022-09-27T16:40:40.277Z,9.8
2022-09-27T16:42:42.227Z,10
2022-09-27T16:44:47.450Z,9.7
2022-09-27T16:46:49.436Z,9.8
2022-09-27T16:48:51.378Z,9.6
2022-09-27T16:50:53.361Z,9.6
2022-09-27T16:52:55.397Z,9.5
2022-09-27T16:54:57.369Z,9.5
2022-09-27T16:56:59.462Z,9.6
2022-09-27T17:01:06.676Z,9.7
2022-09-27T17:03:08.674Z,9.6
2022-09-27T17:05:10.742Z,9.5
2022-09-27T17:07:12.697Z,9.8
2022-09-27T17:11:16.718Z,9.6
2022-09-27T17:13:21.951Z,9.7
2022-09-27T17:15:23.995Z,9.6
2022-09-27T17:17:20.128Z,9.7
2022-09-27T17:19:22.155Z,9.5
2022-09-27T17:21:24.144Z,9.8
2022-09-27T17:23:26.169Z,9.6
2022-09-27T17:25:28.185Z,9.6
2022-09-27T17:27:33.428Z,9.6
2022-09-27T17:31:37.529Z,9.5
2022-09-27T17:32:40.105Z,9.4
2022-09-27T17:34:42.070Z,9.3
2022-09-27T17:36:44.095Z,9.5
2022-09-27T17:38:46.094Z,9.5
2022-09-27T17:40:51.420Z,9.6
2022-09-27T17:42:53.338Z,9.7
2022-09-27T17:44:55.319Z,9.3
2022-09-27T17:46:57.423Z,9.5
2022-09-27T17:48:59.361Z,9.4
2022-09-27T17:51:01.349Z,9.6
2022-09-27T17:53:03.371Z,9.6
2022-09-27T17:55:08.612Z,9.7
2022-09-27T17:57:10.663Z,9.5
2022-09-27T18:01:14.675Z,9.5
2022-09-27T18:03:16.729Z,9.5
2022-09-27T18:05:18.718Z,9.6
2022-09-27T18:07:20.745Z,9.5
2022-09-27T18:09:25.980Z,9.6
2022-09-27T18:11:27.954Z,9.7
2022-09-27T18:13:29.986Z,9.5
2022-09-27T18:15:31.988Z,9.6
2022-09-27T18:17:34.043Z,9.4
2022-09-27T18:21:38.077Z,9.5
2022-09-27T18:23:43.315Z,9.6
2022-09-27T18:25:45.354Z,9.4
2022-09-27T18:27:47.344Z,9.6
2022-09-27T18:33:17.354Z,9.6
2022-09-27T18:34:56.038Z,9.4
2022-09-27T18:37:01.248Z,9.4
2022-09-27T18:39:03.277Z,9.4
2022-09-27T18:41:05.248Z,9.4
2022-09-27T18:43:07.203Z,9.4
2022-09-27T18:45:09.204Z,9.3
2022-09-27T18:47:11.325Z,9.3
2022-09-27T18:49:13.272Z,9.3
2022-09-27T18:51:18.420Z,9.2
2022-09-27T18:53:20.421Z,9.1
2022-09-27T18:55:25.349Z,9.3
2022-09-27T18:57:24.471Z,9.2
2022-09-27T18:59:26.484Z,9.1
2022-09-27T19:03:30.489Z,9.2
2022-09-27T19:05:35.756Z,9.3
2022-09-27T19:07:37.766Z,9.2
2022-09-27T19:13:50.189Z,9.1
2022-09-27T19:15:45.883Z,9
2022-09-27T19:19:52.961Z,9
2022-09-27T19:21:54.988Z,9
2022-09-27T19:23:57.004Z,9
2022-09-27T19:24:59.637Z,9.3
2022-09-27T19:27:01.643Z,9.1
2022-09-27T19:29:03.660Z,9
2022-09-27T19:31:05.736Z,9.1
2022-09-27T19:33:10.947Z,8.9
2022-09-27T19:35:12.958Z,8.9
2022-09-27T19:37:14.942Z,9
2022-09-27T19:39:17.027Z,8.9
2022-09-27T19:41:18.966Z,8.9
2022-09-27T19:43:20.991Z,9.1
2022-09-27T19:45:22.981Z,9
2022-09-27T19:53:35.654Z,9
2022-09-27T19:55:37.633Z,8.8
2022-09-27T19:57:39.647Z,8.9
2022-09-27T19:59:41.673Z,8.9
2022-09-27T20:05:50.917Z,8.9
2022-09-27T20:13:58.927Z,8.8
2022-09-27T20:16:04.298Z,8.8
2022-09-27T20:18:09.195Z,8.4
2022-09-27T20:20:08.208Z,9
2022-09-27T20:24:39.053Z,8.7
2022-09-27T20:26:41.066Z,8.8
2022-09-27T20:28:46.269Z,8.6
2022-09-27T20:32:50.301Z,8.7
2022-09-27T20:34:52.307Z,9
2022-09-27T20:36:54.296Z,8.8
2022-09-27T20:39:01.984Z,8.7
2022-09-27T20:43:03.600Z,8.9
2022-09-27T20:49:09.677Z,8.8
2022-09-27T20:51:11.583Z,8.7
2022-09-27T20:53:13.581Z,8.8
2022-09-27T20:55:15.589Z,8.8
2022-09-27T20:57:27.840Z,8.9
2022-09-27T20:59:23.339Z,8.8
2022-09-27T21:01:24.903Z,8.9
2022-09-27T21:03:26.862Z,8.8
2022-09-27T21:05:28.841Z,9.3
2022-09-27T21:07:30.848Z,8.9
2022-09-27T21:09:32.841Z,8.9
2022-09-27T21:11:38.051Z,8.8
2022-09-27T21:13:40.071Z,8.9
2022-09-27T21:15:42.077Z,8.9
2022-09-27T21:16:44.667Z,8.9
2022-09-27T21:18:46.688Z,8.6
2022-09-27T21:20:48.703Z,8.7
2022-09-27T21:22:50.695Z,9
2022-09-27T21:24:55.898Z,8.8
2022-09-27T21:26:57.917Z,8.7
2022-09-27T21:28:59.906Z,8.8
2022-09-27T21:31:01.917Z,8.8
2022-09-27T21:33:03.995Z,8.7
2022-09-27T21:35:05.909Z,8.9
2022-09-27T21:37:07.926Z,8.7
2022-09-27T21:39:13.350Z,8.7
2022-09-27T21:41:15.193Z,8.8
2022-09-27T21:43:17.189Z,9
2022-09-27T21:45:19.202Z,8.7
2022-09-27T21:47:21.188Z,8.8
2022-09-27T21:49:23.184Z,8.8
2022-09-27T21:51:25.194Z,8.7
2022-09-27T21:53:30.445Z,8.7
2022-09-27T21:55:32.427Z,8.7
2022-09-27T21:57:34.425Z,8.6
2022-09-27T21:59:36.423Z,8.7
2022-09-27T22:03:40.416Z,8.6
2022-09-27T22:09:49.639Z,8.6
2022-09-27T22:11:51.662Z,8.9
2022-09-27T22:12:54.237Z,8.7
2022-09-27T22:14:56.282Z,8.7
2022-09-27T22:16:58.277Z,8.7
2022-09-27T22:19:00.263Z,8.6
2022-09-27T22:21:05.542Z,8.6
2022-09-27T22:23:07.506Z,8.6
2022-09-27T22:25:09.509Z,8.4
2022-09-27T22:27:11.494Z,8.4
2022-09-27T22:29:13.681Z,8.4
2022-09-27T22:31:15.579Z,8.5
2022-09-27T22:33:17.481Z,8.5
2022-09-27T22:35:22.713Z,8.2
2022-09-27T22:37:24.698Z,8.6
2022-09-27T22:39:26.705Z,8.3
2022-09-27T22:41:28.690Z,8.5
2022-09-27T22:43:30.690Z,8.5
2022-09-27T22:45:32.732Z,8.3
2022-09-27T22:47:34.722Z,8.4
2022-09-27T22:49:39.935Z,8.2
2022-09-27T22:51:41.940Z,8.3
2022-09-27T22:53:43.945Z,8.3
2022-09-27T22:55:45.933Z,8.1
2022-09-27T22:57:47.965Z,8.2
2022-09-27T22:59:49.931Z,8
2022-09-27T23:01:51.935Z,8.2
2022-09-27T23:05:59.167Z,8.3
2022-09-27T23:08:01.155Z,8
2022-09-27T23:09:03.760Z,8
2022-09-27T23:11:05.770Z,8
2022-09-27T23:13:07.779Z,7.9
2022-09-27T23:15:09.790Z,7.9
2022-09-27T23:19:17.099Z,8
2022-09-27T23:21:18.982Z,8
2022-09-27T23:23:20.970Z,7.9
2022-09-27T23:25:22.980Z,7.8
2022-09-27T23:29:26.959Z,8
2022-09-27T23:31:32.281Z,7.7
2022-09-27T23:33:34.194Z,7.8
2022-09-27T23:37:38.147Z,7.9
2022-09-27T23:39:40.197Z,7.7
2022-09-27T23:41:42.186Z,7.9
2022-09-27T23:43:44.195Z,7.6
2022-09-27T23:45:49.403Z,7.8
2022-09-27T23:47:51.391Z,7.8
2022-09-27T23:49:53.377Z,7.8
2022-09-27T23:51:55.354Z,7.8
2022-09-27T23:53:57.345Z,7.8
2022-09-27T23:55:59.328Z,7.9
2022-09-27T23:58:01.328Z,7.7
